createdAt,value
2023-02-15T00:03:54.684Z,92.18
2023-02-15T00:08:12.333Z,93.00
2023-02-15T00:12:18.624Z,93.14
2023-02-15T00:16:22.427Z,91.29
2023-02-15T00:20:33.160Z,91.47
2023-02-15T00:24:37.423Z,91.61
2023-02-15T00:28:46.880Z,93.56
2023-02-15T00:32:51.308Z,92.47
2023-02-15T00:36:56.307Z,92.36
2023-02-15T00:41:00.525Z,89.52
2023-02-15T00:45:06.452Z,91.25
2023-02-15T00:49:10.432Z,92.52
2023-02-15T00:53:17.084Z,94.22
2023-02-15T00:57:24.053Z,91.13
2023-02-15T01:01:30.290Z,92.16
2023-02-15T01:05:35.413Z,92.18
2023-02-15T01:09:43.122Z,91.44
2023-02-15T01:13:47.511Z,92.79
2023-02-15T01:17:54.882Z,95.10
2023-02-15T01:21:58.746Z,93.48
2023-02-15T01:26:04.943Z,92.99
2023-02-15T01:30:10.452Z,92.88
2023-02-15T01:34:16.467Z,93.01
2023-02-15T01:38:20.437Z,94.71
2023-02-15T01:42:24.388Z,94.02
2023-02-15T01:46:31.863Z,92.98
2023-02-15T01:50:45.632Z,92.69
2023-02-15T01:54:49.649Z,91.95
2023-02-15T01:58:59.323Z,93.21
2023-02-15T02:03:03.222Z,93.46
2023-02-15T02:07:13.039Z,92.08
2023-02-15T02:11:22.798Z,94.08
2023-02-15T02:15:32.055Z,94.27
2023-02-15T02:20:08.656Z,93.90
2023-02-15T02:24:37.097Z,94.39
2023-02-15T02:29:08.394Z,92.74
2023-02-15T02:33:22.705Z,90.60
2023-02-15T02:37:31.203Z,92.61
2023-02-15T02:41:38.474Z,92.93
2023-02-15T02:45:46.127Z,90.24
2023-02-15T02:49:50.797Z,90.70
2023-02-15T02:53:56.590Z,94.10
2023-02-15T02:58:02.858Z,92.85
2023-02-15T03:02:13.914Z,93.03
2023-02-15T03:06:19.208Z,92.33
2023-02-15T03:10:24.735Z,93.41
2023-02-15T03:14:27.986Z,91.72
2023-02-15T03:18:35.802Z,92.70
2023-02-15T03:22:43.123Z,92.98
2023-02-15T03:26:49.180Z,92.76
2023-02-15T03:30:56.193Z,93.00
2023-02-15T03:35:00.115Z,93.50
2023-02-15T03:39:12.151Z,91.73
2023-02-15T03:43:19.423Z,93.53
2023-02-15T03:47:26.473Z,93.40
2023-02-15T03:51:36.197Z,93.26
2023-02-15T03:55:40.728Z,93.13
2023-02-15T04:00:01.411Z,94.71
2023-02-15T04:04:10.136Z,93.14
2023-02-15T04:08:14.432Z,93.28
2023-02-15T04:12:19.155Z,93.32
2023-02-15T04:16:22.394Z,94.48
2023-02-15T04:20:42.904Z,95.43
2023-02-15T04:25:03.843Z,95.42
2023-02-15T04:29:08.681Z,96.56
2023-02-15T04:33:11.787Z,95.82
2023-02-15T04:37:15.020Z,95.55
2023-02-15T04:41:18.349Z,96.56
2023-02-15T04:45:23.534Z,94.49
2023-02-15T04:49:26.945Z,96.02
2023-02-15T04:53:30.273Z,96.98
2023-02-15T04:57:33.769Z,96.08
2023-02-15T05:01:38.514Z,96.13
2023-02-15T05:05:42.459Z,96.04
2023-02-15T05:09:46.114Z,96.81
2023-02-15T05:13:49.892Z,96.13
2023-02-15T05:17:54.656Z,96.60
2023-02-15T05:21:57.668Z,95.54
2023-02-15T05:26:18.247Z,95.96
2023-02-15T05:30:22.257Z,96.75
2023-02-15T05:34:27.199Z,95.94
2023-02-15T05:38:30.746Z,95.76
2023-02-15T05:42:34.584Z,95.52
2023-02-15T05:46:38.216Z,96.44
2023-02-15T05:50:43.650Z,96.98
2023-02-15T05:54:46.865Z,96.19
2023-02-15T05:58:51.906Z,95.84
2023-02-15T06:02:55.684Z,96.05
2023-02-15T06:07:00.861Z,96.40
2023-02-15T06:11:07.455Z,95.98
2023-02-15T06:15:11.638Z,96.68
2023-02-15T06:19:15.804Z,97.26
2023-02-15T06:23:24.199Z,96.32
2023-02-15T06:27:28.433Z,96.55
2023-02-15T06:31:37.390Z,96.99
2023-02-15T06:35:44.438Z,97.12
2023-02-15T06:40:03.618Z,96.70
2023-02-15T06:44:08.211Z,96.57
2023-02-15T06:48:28.269Z,96.27
2023-02-15T06:52:32.214Z,97.38
2023-02-15T06:56:37.417Z,97.08
2023-02-15T07:00:43.761Z,97.68
2023-02-15T07:04:50.747Z,96.90
2023-02-15T07:08:54.747Z,95.89
2023-02-15T07:12:59.897Z,96.01
2023-02-15T07:17:11.741Z,95.79
2023-02-15T07:21:22.122Z,95.24
2023-02-15T07:25:26.043Z,94.82
2023-02-15T07:29:31.047Z,96.01
2023-02-15T07:33:35.603Z,96.04
2023-02-15T07:37:41.793Z,95.61
2023-02-15T07:41:45.388Z,95.41
2023-02-15T07:45:50.738Z,94.62
2023-02-15T07:49:54.920Z,96.25
2023-02-15T07:54:01.640Z,96.46
2023-02-15T07:58:07.927Z,95.25
2023-02-15T08:02:13.769Z,95.85
2023-02-15T08:06:17.390Z,95.14
2023-02-15T08:10:42.109Z,95.54
2023-02-15T08:14:48.891Z,94.55
2023-02-15T08:19:00.295Z,94.55
2023-02-15T08:23:04.437Z,94.93
2023-02-15T08:27:10.155Z,95.04
2023-02-15T08:35:40.147Z,96.05
2023-02-15T08:39:45.634Z,95.89
2023-02-15T08:43:55.456Z,95.75
2023-02-15T08:48:01.722Z,95.87
2023-02-15T08:52:08.314Z,96.06
2023-02-15T08:56:14.842Z,95.45
2023-02-15T09:00:20.649Z,96.09
2023-02-15T09:04:25.160Z,95.50
2023-02-15T09:08:31.045Z,95.06
2023-02-15T09:12:37.914Z,95.25
2023-02-15T09:16:43.769Z,95.78
2023-02-15T09:20:47.598Z,95.62
2023-02-15T09:24:52.916Z,95.47
2023-02-15T09:28:59.221Z,94.91
2023-02-15T09:33:09.093Z,94.93
2023-02-15T09:37:13.659Z,95.67
2023-02-15T09:41:22.479Z,94.65
2023-02-15T09:45:48.545Z,93.77
2023-02-15T09:50:11.932Z,93.59
2023-02-15T09:54:26.256Z,92.09
2023-02-15T09:58:42.707Z,94.07
2023-02-15T10:03:05.890Z,92.78
2023-02-15T10:07:25.377Z,93.82
2023-02-15T10:11:45.496Z,92.89
2023-02-15T10:20:41.047Z,93.44
2023-02-15T10:25:32.542Z,91.98
2023-02-15T10:29:50.224Z,91.46
2023-02-15T10:34:02.148Z,91.78
2023-02-15T10:38:15.239Z,89.97
2023-02-15T10:42:23.920Z,90.22
2023-02-15T10:46:41.251Z,90.89
2023-02-15T10:50:52.805Z,87.73
2023-02-15T10:55:02.201Z,87.40
2023-02-15T10:59:27.115Z,89.20
2023-02-15T11:03:39.894Z,86.84
2023-02-15T11:07:45.940Z,86.85
2023-02-15T11:11:52.190Z,85.75
2023-02-15T11:15:57.617Z,86.09
2023-02-15T11:20:07.292Z,84.97
2023-02-15T11:24:14.150Z,83.68
2023-02-15T11:28:25.986Z,82.63
2023-02-15T11:32:32.009Z,83.10
2023-02-15T11:36:39.658Z,82.24
2023-02-15T11:40:49.240Z,81.75
2023-02-15T11:45:01.710Z,77.99
2023-02-15T11:49:05.332Z,79.52
2023-02-15T11:53:17.946Z,79.34
2023-02-15T11:57:34.775Z,80.52
2023-02-15T12:01:44.503Z,78.45
2023-02-15T12:05:49.989Z,76.61
2023-02-15T12:09:57.668Z,76.45
2023-02-15T12:14:04.794Z,76.64
2023-02-15T12:18:20.511Z,75.46
2023-02-15T12:22:27.736Z,76.35
2023-02-15T12:26:35.715Z,74.17
2023-02-15T12:30:39.713Z,74.62
2023-02-15T12:34:48.518Z,71.39
2023-02-15T12:39:08.533Z,72.61
2023-02-15T12:43:28.531Z,71.11
2023-02-15T12:47:33.577Z,71.71
2023-02-15T12:51:59.480Z,67.33
2023-02-15T12:56:04.767Z,70.62
2023-02-15T13:00:27.794Z,66.38
2023-02-15T13:04:31.720Z,66.30
2023-02-15T13:08:36.246Z,66.89
2023-02-15T13:12:41.268Z,67.02
2023-02-15T13:16:47.347Z,64.05
2023-02-15T13:20:51.471Z,66.24
2023-02-15T13:25:01.156Z,66.40
2023-02-15T13:29:11.321Z,65.58
2023-02-15T13:33:18.563Z,67.18
2023-02-15T13:37:27.355Z,64.03
2023-02-15T13:41:42.521Z,62.36
2023-02-15T13:45:56.674Z,62.36
2023-02-15T13:50:18.751Z,63.18
2023-02-15T13:55:07.604Z,62.43
2023-02-15T13:59:43.882Z,60.69
2023-02-15T14:04:10.209Z,61.15
2023-02-15T14:08:16.204Z,60.94
2023-02-15T14:12:34.546Z,58.84
2023-02-15T14:17:04.330Z,59.81
2023-02-15T14:21:13.490Z,60.17
2023-02-15T14:25:21.204Z,59.06
2023-02-15T14:29:31.412Z,61.49
2023-02-15T14:33:41.059Z,60.56
2023-02-15T14:37:53.820Z,60.42
2023-02-15T14:42:00.378Z,61.47
2023-02-15T14:46:09.641Z,60.83
2023-02-15T14:50:45.780Z,60.50
2023-02-15T14:54:57.298Z,61.32
2023-02-15T14:59:03.192Z,61.45
2023-02-15T15:03:13.783Z,62.06
2023-02-15T15:07:22.132Z,64.18
2023-02-15T15:11:46.064Z,64.52
2023-02-15T15:15:50.126Z,67.39
2023-02-15T15:20:02.406Z,67.38
2023-02-15T15:24:08.418Z,67.99
2023-02-15T15:28:11.402Z,68.83
2023-02-15T15:32:18.672Z,69.41
2023-02-15T15:36:38.298Z,70.08
2023-02-15T15:40:58.950Z,69.21
2023-02-15T15:45:37.591Z,69.25
2023-02-15T15:49:42.880Z,72.03
2023-02-15T15:53:49.993Z,73.30
2023-02-15T15:57:59.617Z,74.91
2023-02-15T16:02:07.340Z,75.26
2023-02-15T16:06:14.573Z,75.35
2023-02-15T16:10:23.917Z,77.25
2023-02-15T16:14:33.364Z,77.44
2023-02-15T16:18:43.605Z,79.92
2023-02-15T16:22:47.332Z,80.78
2023-02-15T16:27:21.091Z,79.18
2023-02-15T16:31:26.161Z,80.83
2023-02-15T16:35:29.782Z,82.95
2023-02-15T16:39:36.406Z,82.55
2023-02-15T16:43:40.060Z,82.05
2023-02-15T16:47:47.178Z,81.99
2023-02-15T16:51:57.988Z,82.93
2023-02-15T16:56:03.421Z,83.37
2023-02-15T17:00:17.449Z,82.53
2023-02-15T17:04:31.310Z,83.75
2023-02-15T17:08:39.399Z,86.59
2023-02-15T17:12:48.689Z,87.31
2023-02-15T17:16:57.461Z,87.21
2023-02-15T17:21:04.620Z,87.27
2023-02-15T17:25:08.604Z,86.73
2023-02-15T17:29:29.548Z,85.80
2023-02-15T17:33:40.563Z,85.81
2023-02-15T17:37:51.703Z,86.37
2023-02-15T17:42:09.512Z,85.68
2023-02-15T17:46:14.229Z,88.57
2023-02-15T17:50:27.438Z,88.53
2023-02-15T17:54:50.058Z,88.26
2023-02-15T17:58:53.704Z,87.54
2023-02-15T18:03:15.617Z,87.39
2023-02-15T18:07:37.325Z,87.64
2023-02-15T18:11:42.606Z,89.64
2023-02-15T18:15:48.583Z,89.06
2023-02-15T18:19:54.325Z,88.15
2023-02-15T18:23:58.617Z,89.79
2023-02-15T18:28:03.494Z,88.88
2023-02-15T18:32:10.367Z,88.41
2023-02-15T18:36:22.807Z,88.39
2023-02-15T18:40:29.009Z,86.80
2023-02-15T18:44:34.909Z,90.13
2023-02-15T18:48:39.578Z,89.29
2023-02-15T18:52:47.233Z,88.16
2023-02-15T18:56:56.565Z,87.96
2023-02-15T19:01:02.122Z,88.95
2023-02-15T19:05:06.420Z,90.62
2023-02-15T19:09:15.635Z,89.24
2023-02-15T19:13:19.568Z,88.08
2023-02-15T19:17:25.886Z,89.62
2023-02-15T19:21:30.879Z,88.24
2023-02-15T19:25:37.900Z,89.53
2023-02-15T19:29:42.248Z,90.49
2023-02-15T19:33:47.365Z,89.70
2023-02-15T19:37:52.524Z,89.02
2023-02-15T19:41:56.387Z,89.16
2023-02-15T19:46:00.173Z,88.93
2023-02-15T19:50:05.381Z,91.32
2023-02-15T19:54:21.015Z,89.17
2023-02-15T19:58:27.938Z,90.25
2023-02-15T20:02:31.704Z,90.26
2023-02-15T20:06:36.965Z,90.00
2023-02-15T20:10:42.543Z,89.95
2023-02-15T20:14:48.001Z,91.55
2023-02-15T20:18:52.422Z,91.13
2023-02-15T20:22:58.015Z,91.32
2023-02-15T20:27:01.976Z,90.39
2023-02-15T20:31:08.711Z,89.82
2023-02-15T20:35:16.121Z,90.18
2023-02-15T20:39:21.554Z,91.50
2023-02-15T20:43:26.351Z,91.22
2023-02-15T20:47:31.307Z,91.39
2023-02-15T20:51:35.200Z,92.00
2023-02-15T20:55:40.360Z,90.20
2023-02-15T20:59:44.825Z,92.08
2023-02-15T21:03:48.928Z,93.63
2023-02-15T21:07:53.821Z,90.26
2023-02-15T21:12:02.737Z,93.04
2023-02-15T21:16:06.658Z,91.61
2023-02-15T21:20:15.423Z,91.25
2023-02-15T21:24:22.627Z,93.11
2023-02-15T21:28:28.971Z,92.58
2023-02-15T21:32:32.985Z,93.02
2023-02-15T21:36:36.747Z,92.30
2023-02-15T21:40:40.356Z,93.47
2023-02-15T21:45:02.955Z,92.96
2023-02-15T21:49:07.603Z,93.05
2023-02-15T21:53:12.774Z,92.54
2023-02-15T21:57:18.721Z,90.96
2023-02-15T22:01:26.465Z,92.62
2023-02-15T22:05:32.469Z,92.65
2023-02-15T22:09:36.248Z,93.53
2023-02-15T22:13:43.113Z,92.54
2023-02-15T22:17:48.468Z,92.76
2023-02-15T22:21:53.334Z,90.93
2023-02-15T22:26:04.614Z,92.61
2023-02-15T22:30:20.128Z,92.58
2023-02-15T22:34:31.324Z,92.99
2023-02-15T22:38:37.712Z,92.30
2023-02-15T22:42:41.957Z,93.95
2023-02-15T22:47:02.160Z,93.66
2023-02-15T22:51:11.855Z,92.52
2023-02-15T22:55:24.252Z,93.41
2023-02-15T22:59:30.865Z,93.49
2023-02-15T23:03:41.573Z,92.49
2023-02-15T23:08:15.920Z,92.58
2023-02-15T23:12:53.731Z,91.53
2023-02-15T23:17:02.310Z,93.93
2023-02-15T23:21:13.497Z,93.24
2023-02-15T23:25:26.928Z,91.40
2023-02-15T23:29:31.598Z,93.54
2023-02-15T23:33:40.441Z,93.29
2023-02-15T23:37:52.040Z,93.82
2023-02-15T23:41:58.133Z,91.82
2023-02-15T23:46:22.741Z,92.08
2023-02-15T23:50:29.374Z,92.84
2023-02-15T23:54:34.127Z,93.93
2023-02-15T23:58:45.273Z,91.64
